sensor_id;sensor_type;location;lat;lon;timestamp;P1;durP1;ratioP1;P2;durP2;ratioP2
3647;SDS011;1840;48.892;15.312;2023-02-01T00:00:39;1.37;;;1.17;;
3647;SDS011;1840;48.892;15.312;2023-02-01T00:03:07;2.03;;;1.40;;
3647;SDS011;1840;48.892;15.312;2023-02-01T00:05:35;1.27;;;1.10;;
3647;SDS011;1840;48.892;15.312;2023-02-01T00:08:03;1.63;;;1.37;;
3647;SDS011;1840;48.892;15.312;2023-02-01T00:10:31;1.63;;;1.27;;
3647;SDS011;1840;48.892;15.312;2023-02-01T00:12:59;2.10;;;1.40;;
3647;SDS011;1840;48.892;15.312;2023-02-01T00:15:27;2.03;;;1.50;;
3647;SDS011;1840;48.892;15.312;2023-02-01T00:17:56;2.20;;;1.47;;
3647;SDS011;1840;48.892;15.312;2023-02-01T00:20:24;2.30;;;1.40;;
3647;SDS011;1840;48.892;15.312;2023-02-01T00:22:52;1.43;;;1.10;;
3647;SDS011;1840;48.892;15.312;2023-02-01T00:25:20;2.03;;;1.47;;
3647;SDS011;1840;48.892;15.312;2023-02-01T00:27:48;2.07;;;1.50;;
3647;SDS011;1840;48.892;15.312;2023-02-01T00:30:17;1.60;;;1.30;;
3647;SDS011;1840;48.892;15.312;2023-02-01T00:32:45;1.50;;;1.30;;
3647;SDS011;1840;48.892;15.312;2023-02-01T00:35:15;1.83;;;1.50;;
3647;SDS011;1840;48.892;15.312;2023-02-01T00:37:43;1.73;;;1.50;;
3647;SDS011;1840;48.892;15.312;2023-02-01T00:40:11;2.30;;;1.73;;
3647;SDS011;1840;48.892;15.312;2023-02-01T00:42:39;1.70;;;1.47;;
3647;SDS011;1840;48.892;15.312;2023-02-01T00:45:07;2.13;;;1.40;;
3647;SDS011;1840;48.892;15.312;2023-02-01T00:47:36;1.83;;;1.43;;
3647;SDS011;1840;48.892;15.312;2023-02-01T00:50:04;2.07;;;1.70;;
3647;SDS011;1840;48.892;15.312;2023-02-01T00:52:34;2.53;;;1.60;;
3647;SDS011;1840;48.892;15.312;2023-02-01T00:55:02;1.73;;;1.37;;
3647;SDS011;1840;48.892;15.312;2023-02-01T00:57:30;2.07;;;1.63;;
3647;SDS011;1840;48.892;15.312;2023-02-01T00:59:58;2.10;;;1.60;;
3647;SDS011;1840;48.892;15.312;2023-02-01T01:02:27;2.50;;;1.73;;
3647;SDS011;1840;48.892;15.312;2023-02-01T01:04:55;2.40;;;1.67;;
3647;SDS011;1840;48.892;15.312;2023-02-01T01:07:23;2.10;;;1.30;;
3647;SDS011;1840;48.892;15.312;2023-02-01T01:09:52;2.87;;;1.70;;
3647;SDS011;1840;48.892;15.312;2023-02-01T01:12:20;1.57;;;1.20;;
3647;SDS011;1840;48.892;15.312;2023-02-01T01:14:48;5.70;;;2.00;;
3647;SDS011;1840;48.892;15.312;2023-02-01T01:17:16;1.60;;;1.50;;
3647;SDS011;1840;48.892;15.312;2023-02-01T01:19:44;2.50;;;2.00;;
3647;SDS011;1840;48.892;15.312;2023-02-01T01:22:12;2.00;;;1.43;;
3647;SDS011;1840;48.892;15.312;2023-02-01T01:24:40;1.73;;;1.40;;
3647;SDS011;1840;48.892;15.312;2023-02-01T01:27:09;1.80;;;1.30;;
3647;SDS011;1840;48.892;15.312;2023-02-01T01:29:37;1.67;;;1.20;;
3647;SDS011;1840;48.892;15.312;2023-02-01T01:32:05;1.63;;;1.30;;
3647;SDS011;1840;48.892;15.312;2023-02-01T01:34:33;3.20;;;1.53;;
3647;SDS011;1840;48.892;15.312;2023-02-01T01:37:01;1.90;;;1.40;;
3647;SDS011;1840;48.892;15.312;2023-02-01T01:39:29;3.10;;;1.30;;
3647;SDS011;1840;48.892;15.312;2023-02-01T01:41:57;1.93;;;1.43;;
3647;SDS011;1840;48.892;15.312;2023-02-01T01:47:39;1.70;;;1.57;;
3647;SDS011;1840;48.892;15.312;2023-02-01T01:50:14;1.53;;;1.30;;
3647;SDS011;1840;48.892;15.312;2023-02-01T01:52:46;1.60;;;1.30;;
3647;SDS011;1840;48.892;15.312;2023-02-01T01:55:18;2.77;;;1.50;;
3647;SDS011;1840;48.892;15.312;2023-02-01T01:57:48;1.73;;;1.40;;
3647;SDS011;1840;48.892;15.312;2023-02-01T02:00:20;3.53;;;1.83;;
3647;SDS011;1840;48.892;15.312;2023-02-01T02:02:52;2.40;;;2.10;;
3647;SDS011;1840;48.892;15.312;2023-02-01T02:05:23;2.17;;;1.50;;
3647;SDS011;1840;48.892;15.312;2023-02-01T02:07:52;2.20;;;1.70;;
3647;SDS011;1840;48.892;15.312;2023-02-01T02:10:24;1.67;;;1.20;;
3647;SDS011;1840;48.892;15.312;2023-02-01T02:13:13;1.40;;;1.20;;
3647;SDS011;1840;48.892;15.312;2023-02-01T02:15:43;1.87;;;1.47;;
3647;SDS011;1840;48.892;15.312;2023-02-01T02:18:20;2.03;;;1.47;;
3647;SDS011;1840;48.892;15.312;2023-02-01T02:21:10;1.60;;;1.30;;
3647;SDS011;1840;48.892;15.312;2023-02-01T02:23:57;2.20;;;1.30;;
3647;SDS011;1840;48.892;15.312;2023-02-01T02:26:50;5.03;;;1.60;;
3647;SDS011;1840;48.892;15.312;2023-02-01T02:32:39;1.53;;;1.30;;
3647;SDS011;1840;48.892;15.312;2023-02-01T02:35:30;1.27;;;1.17;;
3647;SDS011;1840;48.892;15.312;2023-02-01T02:38:06;2.40;;;1.40;;
3647;SDS011;1840;48.892;15.312;2023-02-01T02:40:42;1.83;;;1.50;;
3647;SDS011;1840;48.892;15.312;2023-02-01T02:43:17;3.10;;;1.40;;
3647;SDS011;1840;48.892;15.312;2023-02-01T02:46:09;3.00;;;1.40;;
3647;SDS011;1840;48.892;15.312;2023-02-01T02:49:02;3.90;;;1.73;;
3647;SDS011;1840;48.892;15.312;2023-02-01T02:51:40;1.60;;;1.30;;
3647;SDS011;1840;48.892;15.312;2023-02-01T02:54:29;2.07;;;1.20;;
3647;SDS011;1840;48.892;15.312;2023-02-01T02:57:18;1.80;;;1.50;;
3647;SDS011;1840;48.892;15.312;2023-02-01T03:00:09;2.40;;;1.50;;
3647;SDS011;1840;48.892;15.312;2023-02-01T03:02:57;1.90;;;1.43;;
3647;SDS011;1840;48.892;15.312;2023-02-01T03:05:43;2.43;;;1.37;;
3647;SDS011;1840;48.892;15.312;2023-02-01T03:08:15;2.40;;;1.53;;
3647;SDS011;1840;48.892;15.312;2023-02-01T03:10:50;1.67;;;1.13;;
3647;SDS011;1840;48.892;15.312;2023-02-01T03:13:27;5.20;;;1.60;;
3647;SDS011;1840;48.892;15.312;2023-02-01T03:16:01;3.10;;;1.90;;
3647;SDS011;1840;48.892;15.312;2023-02-01T03:18:35;2.20;;;1.60;;
3647;SDS011;1840;48.892;15.312;2023-02-01T03:21:08;1.97;;;1.43;;
3647;SDS011;1840;48.892;15.312;2023-02-01T03:23:41;2.60;;;1.40;;
3647;SDS011;1840;48.892;15.312;2023-02-01T03:26:11;2.60;;;1.93;;
3647;SDS011;1840;48.892;15.312;2023-02-01T03:28:42;2.27;;;1.73;;
3647;SDS011;1840;48.892;15.312;2023-02-01T03:31:14;2.23;;;1.70;;
3647;SDS011;1840;48.892;15.312;2023-02-01T03:33:43;1.70;;;1.30;;
3647;SDS011;1840;48.892;15.312;2023-02-01T03:36:15;3.57;;;1.80;;
3647;SDS011;1840;48.892;15.312;2023-02-01T03:38:51;3.77;;;1.70;;
3647;SDS011;1840;48.892;15.312;2023-02-01T03:41:27;2.77;;;1.77;;
3647;SDS011;1840;48.892;15.312;2023-02-01T03:44:01;2.93;;;1.90;;
3647;SDS011;1840;48.892;15.312;2023-02-01T03:46:34;3.00;;;1.80;;
3647;SDS011;1840;48.892;15.312;2023-02-01T03:49:08;2.30;;;1.90;;
3647;SDS011;1840;48.892;15.312;2023-02-01T03:51:39;3.10;;;1.70;;
3647;SDS011;1840;48.892;15.312;2023-02-01T03:54:10;2.57;;;2.03;;
3647;SDS011;1840;48.892;15.312;2023-02-01T03:56:42;4.43;;;2.13;;
3647;SDS011;1840;48.892;15.312;2023-02-01T03:59:13;5.17;;;2.40;;
3647;SDS011;1840;48.892;15.312;2023-02-01T04:01:41;6.20;;;2.40;;
3647;SDS011;1840;48.892;15.312;2023-02-01T04:04:09;6.30;;;1.87;;
3647;SDS011;1840;48.892;15.312;2023-02-01T04:06:46;3.00;;;2.00;;
3647;SDS011;1840;48.892;15.312;2023-02-01T04:09:15;4.23;;;2.10;;
3647;SDS011;1840;48.892;15.312;2023-02-01T04:11:43;3.37;;;2.17;;
3647;SDS011;1840;48.892;15.312;2023-02-01T04:14:11;5.33;;;2.87;;
3647;SDS011;1840;48.892;15.312;2023-02-01T04:16:39;4.17;;;2.00;;
3647;SDS011;1840;48.892;15.312;2023-02-01T04:19:07;5.37;;;2.90;;
3647;SDS011;1840;48.892;15.312;2023-02-01T04:21:35;4.40;;;2.50;;
3647;SDS011;1840;48.892;15.312;2023-02-01T04:24:04;4.80;;;2.40;;
3647;SDS011;1840;48.892;15.312;2023-02-01T04:26:34;2.50;;;2.20;;
3647;SDS011;1840;48.892;15.312;2023-02-01T04:29:02;4.30;;;2.73;;
3647;SDS011;1840;48.892;15.312;2023-02-01T04:31:30;8.90;;;2.87;;
3647;SDS011;1840;48.892;15.312;2023-02-01T04:33:58;5.17;;;2.80;;
3647;SDS011;1840;48.892;15.312;2023-02-01T04:36:27;2.90;;;2.40;;
3647;SDS011;1840;48.892;15.312;2023-02-01T04:38:55;8.37;;;2.67;;
3647;SDS011;1840;48.892;15.312;2023-02-01T04:41:23;9.53;;;3.10;;
3647;SDS011;1840;48.892;15.312;2023-02-01T04:43:52;6.27;;;3.40;;
3647;SDS011;1840;48.892;15.312;2023-02-01T04:46:20;7.20;;;3.50;;
3647;SDS011;1840;48.892;15.312;2023-02-01T04:48:48;7.80;;;4.47;;
3647;SDS011;1840;48.892;15.312;2023-02-01T04:51:16;15.13;;;5.27;;
3647;SDS011;1840;48.892;15.312;2023-02-01T04:53:45;5.50;;;3.00;;
3647;SDS011;1840;48.892;15.312;2023-02-01T04:56:13;11.77;;;6.47;;
3647;SDS011;1840;48.892;15.312;2023-02-01T04:58:41;5.60;;;2.80;;
3647;SDS011;1840;48.892;15.312;2023-02-01T05:01:10;5.73;;;3.90;;
3647;SDS011;1840;48.892;15.312;2023-02-01T05:03:38;6.57;;;3.47;;
3647;SDS011;1840;48.892;15.312;2023-02-01T05:06:06;7.77;;;4.23;;
3647;SDS011;1840;48.892;15.312;2023-02-01T05:08:34;6.33;;;2.73;;
3647;SDS011;1840;48.892;15.312;2023-02-01T05:11:04;4.00;;;2.87;;
3647;SDS011;1840;48.892;15.312;2023-02-01T05:13:32;4.30;;;3.00;;
3647;SDS011;1840;48.892;15.312;2023-02-01T05:16:16;4.60;;;2.80;;
3647;SDS011;1840;48.892;15.312;2023-02-01T05:18:44;4.30;;;2.67;;
3647;SDS011;1840;48.892;15.312;2023-02-01T05:21:12;4.17;;;3.00;;
3647;SDS011;1840;48.892;15.312;2023-02-01T05:23:40;4.07;;;2.60;;
3647;SDS011;1840;48.892;15.312;2023-02-01T05:26:22;4.17;;;2.93;;
3647;SDS011;1840;48.892;15.312;2023-02-01T05:28:50;4.83;;;2.80;;
3647;SDS011;1840;48.892;15.312;2023-02-01T05:31:19;6.17;;;3.40;;
3647;SDS011;1840;48.892;15.312;2023-02-01T05:33:48;3.50;;;2.53;;
3647;SDS011;1840;48.892;15.312;2023-02-01T05:36:16;4.07;;;2.27;;
3647;SDS011;1840;48.892;15.312;2023-02-01T05:38:44;4.07;;;2.00;;
3647;SDS011;1840;48.892;15.312;2023-02-01T05:41:12;4.97;;;2.30;;
3647;SDS011;1840;48.892;15.312;2023-02-01T05:43:40;3.43;;;2.10;;
3647;SDS011;1840;48.892;15.312;2023-02-01T05:46:08;2.30;;;2.00;;
3647;SDS011;1840;48.892;15.312;2023-02-01T05:48:40;6.63;;;2.87;;
3647;SDS011;1840;48.892;15.312;2023-02-01T05:51:09;3.00;;;2.10;;
3647;SDS011;1840;48.892;15.312;2023-02-01T05:53:37;3.30;;;2.07;;
3647;SDS011;1840;48.892;15.312;2023-02-01T05:56:06;9.20;;;2.77;;
3647;SDS011;1840;48.892;15.312;2023-02-01T05:58:34;4.57;;;2.50;;
3647;SDS011;1840;48.892;15.312;2023-02-01T06:01:03;2.97;;;2.23;;
3647;SDS011;1840;48.892;15.312;2023-02-01T06:03:31;3.80;;;2.20;;
3647;SDS011;1840;48.892;15.312;2023-02-01T06:06:01;4.00;;;2.70;;
3647;SDS011;1840;48.892;15.312;2023-02-01T06:08:30;3.10;;;2.60;;
3647;SDS011;1840;48.892;15.312;2023-02-01T06:10:58;3.93;;;3.13;;
3647;SDS011;1840;48.892;15.312;2023-02-01T06:13:26;4.17;;;3.07;;
3647;SDS011;1840;48.892;15.312;2023-02-01T06:15:55;2.63;;;2.13;;
3647;SDS011;1840;48.892;15.312;2023-02-01T06:18:23;5.20;;;3.00;;
3647;SDS011;1840;48.892;15.312;2023-02-01T06:20:52;3.20;;;2.23;;
3647;SDS011;1840;48.892;15.312;2023-02-01T06:23:22;3.17;;;2.40;;
3647;SDS011;1840;48.892;15.312;2023-02-01T06:25:51;3.70;;;2.77;;
3647;SDS011;1840;48.892;15.312;2023-02-01T06:28:19;5.20;;;2.37;;
3647;SDS011;1840;48.892;15.312;2023-02-01T06:30:47;5.67;;;2.70;;
3647;SDS011;1840;48.892;15.312;2023-02-01T06:33:15;3.53;;;2.50;;
3647;SDS011;1840;48.892;15.312;2023-02-01T06:35:43;3.50;;;2.40;;
3647;SDS011;1840;48.892;15.312;2023-02-01T06:38:11;3.10;;;2.30;;
3647;SDS011;1840;48.892;15.312;2023-02-01T06:40:41;4.20;;;2.60;;
3647;SDS011;1840;48.892;15.312;2023-02-01T06:43:09;4.20;;;2.00;;
3647;SDS011;1840;48.892;15.312;2023-02-01T06:45:37;3.47;;;2.40;;
3647;SDS011;1840;48.892;15.312;2023-02-01T06:48:07;2.70;;;1.90;;
3647;SDS011;1840;48.892;15.312;2023-02-01T06:50:35;2.83;;;2.40;;
3647;SDS011;1840;48.892;15.312;2023-02-01T06:53:03;4.00;;;3.10;;
3647;SDS011;1840;48.892;15.312;2023-02-01T06:55:31;2.93;;;2.20;;
3647;SDS011;1840;48.892;15.312;2023-02-01T06:58:01;3.50;;;2.63;;
3647;SDS011;1840;48.892;15.312;2023-02-01T07:00:29;4.37;;;2.60;;
3647;SDS011;1840;48.892;15.312;2023-02-01T07:02:57;4.00;;;2.87;;
3647;SDS011;1840;48.892;15.312;2023-02-01T07:05:26;3.03;;;2.60;;
3647;SDS011;1840;48.892;15.312;2023-02-01T07:07:54;3.13;;;2.20;;
3647;SDS011;1840;48.892;15.312;2023-02-01T07:10:22;3.67;;;2.60;;
3647;SDS011;1840;48.892;15.312;2023-02-01T07:12:50;3.33;;;2.23;;
3647;SDS011;1840;48.892;15.312;2023-02-01T07:15:20;4.30;;;3.10;;
3647;SDS011;1840;48.892;15.312;2023-02-01T07:17:50;8.80;;;3.00;;
3647;SDS011;1840;48.892;15.312;2023-02-01T07:20:18;3.00;;;2.33;;
3647;SDS011;1840;48.892;15.312;2023-02-01T07:22:47;3.53;;;2.87;;
3647;SDS011;1840;48.892;15.312;2023-02-01T07:25:15;3.90;;;2.57;;
3647;SDS011;1840;48.892;15.312;2023-02-01T07:27:43;3.90;;;2.30;;
3647;SDS011;1840;48.892;15.312;2023-02-01T07:30:12;3.93;;;2.77;;
3647;SDS011;1840;48.892;15.312;2023-02-01T07:32:42;2.60;;;1.90;;
3647;SDS011;1840;48.892;15.312;2023-02-01T07:35:10;4.40;;;2.10;;
3647;SDS011;1840;48.892;15.312;2023-02-01T07:37:38;4.67;;;2.30;;
3647;SDS011;1840;48.892;15.312;2023-02-01T07:40:06;3.10;;;2.23;;
3647;SDS011;1840;48.892;15.312;2023-02-01T07:42:35;3.73;;;2.30;;
3647;SDS011;1840;48.892;15.312;2023-02-01T07:45:03;3.60;;;2.53;;
3647;SDS011;1840;48.892;15.312;2023-02-01T07:47:47;9.73;;;2.40;;
3647;SDS011;1840;48.892;15.312;2023-02-01T07:50:16;4.93;;;2.90;;
3647;SDS011;1840;48.892;15.312;2023-02-01T07:52:44;3.10;;;2.30;;
3647;SDS011;1840;48.892;15.312;2023-02-01T07:55:12;5.23;;;2.20;;
3647;SDS011;1840;48.892;15.312;2023-02-01T07:57:40;3.00;;;2.40;;
3647;SDS011;1840;48.892;15.312;2023-02-01T08:00:09;4.50;;;2.40;;
3647;SDS011;1840;48.892;15.312;2023-02-01T08:02:58;4.23;;;2.53;;
3647;SDS011;1840;48.892;15.312;2023-02-01T08:05:26;4.80;;;2.00;;
3647;SDS011;1840;48.892;15.312;2023-02-01T08:07:54;2.93;;;2.10;;
3647;SDS011;1840;48.892;15.312;2023-02-01T08:10:22;4.13;;;2.13;;
3647;SDS011;1840;48.892;15.312;2023-02-01T08:12:51;2.40;;;2.00;;
3647;SDS011;1840;48.892;15.312;2023-02-01T08:15:19;3.37;;;2.10;;
3647;SDS011;1840;48.892;15.312;2023-02-01T08:17:47;5.57;;;2.40;;
3647;SDS011;1840;48.892;15.312;2023-02-01T08:20:17;3.07;;;2.20;;
3647;SDS011;1840;48.892;15.312;2023-02-01T08:22:48;3.90;;;2.50;;
3647;SDS011;1840;48.892;15.312;2023-02-01T08:25:19;4.27;;;2.40;;
3647;SDS011;1840;48.892;15.312;2023-02-01T08:27:47;2.13;;;1.93;;
3647;SDS011;1840;48.892;15.312;2023-02-01T08:30:16;3.20;;;2.40;;
3647;SDS011;1840;48.892;15.312;2023-02-01T08:32:44;3.37;;;1.80;;
3647;SDS011;1840;48.892;15.312;2023-02-01T08:35:12;4.43;;;3.00;;
3647;SDS011;1840;48.892;15.312;2023-02-01T08:37:41;3.80;;;2.93;;
3647;SDS011;1840;48.892;15.312;2023-02-01T08:40:10;3.33;;;2.63;;
3647;SDS011;1840;48.892;15.312;2023-02-01T08:42:40;4.53;;;3.00;;
3647;SDS011;1840;48.892;15.312;2023-02-01T08:45:21;3.27;;;2.60;;
3647;SDS011;1840;48.892;15.312;2023-02-01T08:47:51;6.10;;;3.10;;
3647;SDS011;1840;48.892;15.312;2023-02-01T08:50:20;2.80;;;2.43;;
3647;SDS011;1840;48.892;15.312;2023-02-01T08:52:51;6.00;;;3.67;;
3647;SDS011;1840;48.892;15.312;2023-02-01T08:55:19;3.57;;;2.63;;
3647;SDS011;1840;48.892;15.312;2023-02-01T08:57:47;13.80;;;8.03;;
3647;SDS011;1840;48.892;15.312;2023-02-01T09:00:16;5.20;;;3.60;;
3647;SDS011;1840;48.892;15.312;2023-02-01T09:02:45;10.43;;;5.53;;
3647;SDS011;1840;48.892;15.312;2023-02-01T09:05:13;4.77;;;3.27;;
3647;SDS011;1840;48.892;15.312;2023-02-01T09:07:42;3.50;;;2.60;;
3647;SDS011;1840;48.892;15.312;2023-02-01T09:10:12;4.30;;;2.90;;
3647;SDS011;1840;48.892;15.312;2023-02-01T09:12:44;3.43;;;2.50;;
3647;SDS011;1840;48.892;15.312;2023-02-01T09:15:12;3.80;;;2.73;;
3647;SDS011;1840;48.892;15.312;2023-02-01T09:17:40;4.37;;;3.10;;
3647;SDS011;1840;48.892;15.312;2023-02-01T09:20:10;4.50;;;3.17;;
3647;SDS011;1840;48.892;15.312;2023-02-01T09:22:39;4.63;;;2.87;;
3647;SDS011;1840;48.892;15.312;2023-02-01T09:25:07;4.97;;;2.63;;
3647;SDS011;1840;48.892;15.312;2023-02-01T09:27:37;3.77;;;3.03;;
3647;SDS011;1840;48.892;15.312;2023-02-01T09:30:05;4.33;;;3.17;;
3647;SDS011;1840;48.892;15.312;2023-02-01T09:32:35;3.50;;;3.00;;
3647;SDS011;1840;48.892;15.312;2023-02-01T09:35:04;3.60;;;2.27;;
3647;SDS011;1840;48.892;15.312;2023-02-01T09:37:32;3.23;;;2.33;;
3647;SDS011;1840;48.892;15.312;2023-02-01T09:40:00;5.73;;;2.93;;
3647;SDS011;1840;48.892;15.312;2023-02-01T09:42:35;4.00;;;2.83;;
3647;SDS011;1840;48.892;15.312;2023-02-01T09:45:20;4.63;;;2.83;;
3647;SDS011;1840;48.892;15.312;2023-02-01T09:47:54;10.20;;;2.83;;
3647;SDS011;1840;48.892;15.312;2023-02-01T09:50:28;3.20;;;2.10;;
3647;SDS011;1840;48.892;15.312;2023-02-01T09:53:04;3.90;;;2.40;;
3647;SDS011;1840;48.892;15.312;2023-02-01T09:55:39;4.33;;;2.40;;
3647;SDS011;1840;48.892;15.312;2023-02-01T09:58:13;3.00;;;2.03;;
3647;SDS011;1840;48.892;15.312;2023-02-01T10:00:46;3.53;;;1.90;;
3647;SDS011;1840;48.892;15.312;2023-02-01T10:03:17;3.23;;;2.07;;
3647;SDS011;1840;48.892;15.312;2023-02-01T10:05:55;6.10;;;2.10;;
3647;SDS011;1840;48.892;15.312;2023-02-01T10:08:47;2.37;;;1.80;;
3647;SDS011;1840;48.892;15.312;2023-02-01T10:11:29;6.60;;;2.77;;
3647;SDS011;1840;48.892;15.312;2023-02-01T10:14:29;6.43;;;1.80;;
3647;SDS011;1840;48.892;15.312;2023-02-01T10:17:13;4.80;;;2.07;;
3647;SDS011;1840;48.892;15.312;2023-02-01T10:19:51;4.03;;;1.93;;
3647;SDS011;1840;48.892;15.312;2023-02-01T10:22:35;3.90;;;1.60;;
3647;SDS011;1840;48.892;15.312;2023-02-01T10:25:30;3.80;;;1.90;;
3647;SDS011;1840;48.892;15.312;2023-02-01T10:28:04;1.90;;;1.70;;
3647;SDS011;1840;48.892;15.312;2023-02-01T10:30:37;4.73;;;1.80;;
3647;SDS011;1840;48.892;15.312;2023-02-01T10:33:14;4.67;;;1.70;;
3647;SDS011;1840;48.892;15.312;2023-02-01T10:35:44;4.57;;;2.20;;
3647;SDS011;1840;48.892;15.312;2023-02-01T10:38:17;5.27;;;1.70;;
3647;SDS011;1840;48.892;15.312;2023-02-01T10:40:51;2.77;;;1.60;;
3647;SDS011;1840;48.892;15.312;2023-02-01T10:43:22;4.40;;;2.23;;
3647;SDS011;1840;48.892;15.312;2023-02-01T10:45:51;4.93;;;2.13;;
3647;SDS011;1840;48.892;15.312;2023-02-01T10:48:19;12.07;;;2.50;;
3647;SDS011;1840;48.892;15.312;2023-02-01T10:50:49;6.30;;;2.30;;
3647;SDS011;1840;48.892;15.312;2023-02-01T10:53:23;7.10;;;2.40;;
3647;SDS011;1840;48.892;15.312;2023-02-01T10:55:55;9.80;;;2.37;;
3647;SDS011;1840;48.892;15.312;2023-02-01T10:58:26;14.37;;;2.30;;
3647;SDS011;1840;48.892;15.312;2023-02-01T11:00:57;7.50;;;2.33;;
3647;SDS011;1840;48.892;15.312;2023-02-01T11:03:33;12.87;;;2.70;;
3647;SDS011;1840;48.892;15.312;2023-02-01T11:06:10;9.70;;;2.70;;
3647;SDS011;1840;48.892;15.312;2023-02-01T11:08:47;7.40;;;2.60;;
3647;SDS011;1840;48.892;15.312;2023-02-01T11:11:17;6.70;;;3.03;;
3647;SDS011;1840;48.892;15.312;2023-02-01T11:13:51;7.50;;;2.80;;
3647;SDS011;1840;48.892;15.312;2023-02-01T11:16:28;8.70;;;3.33;;
3647;SDS011;1840;48.892;15.312;2023-02-01T11:19:00;7.70;;;3.20;;
3647;SDS011;1840;48.892;15.312;2023-02-01T11:21:28;8.50;;;2.90;;
3647;SDS011;1840;48.892;15.312;2023-02-01T11:23:59;4.20;;;1.87;;
3647;SDS011;1840;48.892;15.312;2023-02-01T11:26:29;13.17;;;2.83;;
3647;SDS011;1840;48.892;15.312;2023-02-01T11:28:59;12.63;;;2.47;;
3647;SDS011;1840;48.892;15.312;2023-02-01T11:31:32;4.90;;;2.20;;
3647;SDS011;1840;48.892;15.312;2023-02-01T11:34:05;3.27;;;2.33;;
3647;SDS011;1840;48.892;15.312;2023-02-01T11:36:36;8.67;;;2.17;;
3647;SDS011;1840;48.892;15.312;2023-02-01T11:39:10;5.23;;;1.80;;
3647;SDS011;1840;48.892;15.312;2023-02-01T11:41:55;6.80;;;2.00;;
3647;SDS011;1840;48.892;15.312;2023-02-01T11:44:28;6.80;;;2.10;;
3647;SDS011;1840;48.892;15.312;2023-02-01T11:47:23;5.23;;;2.17;;
3647;SDS011;1840;48.892;15.312;2023-02-01T11:49:54;8.87;;;2.37;;
3647;SDS011;1840;48.892;15.312;2023-02-01T11:52:30;5.27;;;1.77;;
3647;SDS011;1840;48.892;15.312;2023-02-01T11:55:35;3.43;;;1.87;;
3647;SDS011;1840;48.892;15.312;2023-02-01T11:58:20;8.27;;;2.20;;
3647;SDS011;1840;48.892;15.312;2023-02-01T12:01:03;11.40;;;2.03;;
3647;SDS011;1840;48.892;15.312;2023-02-01T12:03:55;5.53;;;1.73;;
3647;SDS011;1840;48.892;15.312;2023-02-01T12:06:46;7.00;;;2.13;;
3647;SDS011;1840;48.892;15.312;2023-02-01T12:09:21;4.77;;;1.73;;
3647;SDS011;1840;48.892;15.312;2023-02-01T12:12:01;3.93;;;1.70;;
3647;SDS011;1840;48.892;15.312;2023-02-01T12:14:38;6.37;;;1.93;;
3647;SDS011;1840;48.892;15.312;2023-02-01T12:17:37;4.70;;;1.80;;
3647;SDS011;1840;48.892;15.312;2023-02-01T12:23:31;2.87;;;1.50;;
3647;SDS011;1840;48.892;15.312;2023-02-01T12:26:13;4.30;;;1.50;;
3647;SDS011;1840;48.892;15.312;2023-02-01T12:32:11;8.53;;;1.90;;
3647;SDS011;1840;48.892;15.312;2023-02-01T12:35:09;3.93;;;1.40;;
3647;SDS011;1840;48.892;15.312;2023-02-01T12:37:57;4.30;;;1.50;;
3647;SDS011;1840;48.892;15.312;2023-02-01T12:40:41;6.80;;;1.47;;
3647;SDS011;1840;48.892;15.312;2023-02-01T12:43:17;6.23;;;1.87;;
3647;SDS011;1840;48.892;15.312;2023-02-01T12:45:52;4.73;;;1.60;;
3647;SDS011;1840;48.892;15.312;2023-02-01T12:48:26;3.47;;;1.60;;
3647;SDS011;1840;48.892;15.312;2023-02-01T12:50:59;6.43;;;1.40;;
3647;SDS011;1840;48.892;15.312;2023-02-01T12:53:37;6.03;;;1.70;;
3647;SDS011;1840;48.892;15.312;2023-02-01T12:56:15;5.87;;;1.90;;
3647;SDS011;1840;48.892;15.312;2023-02-01T12:58:48;5.27;;;1.80;;
3647;SDS011;1840;48.892;15.312;2023-02-01T13:01:20;4.20;;;1.60;;
3647;SDS011;1840;48.892;15.312;2023-02-01T13:03:52;2.73;;;1.40;;
3647;SDS011;1840;48.892;15.312;2023-02-01T13:06:27;6.10;;;1.53;;
3647;SDS011;1840;48.892;15.312;2023-02-01T13:09:00;3.63;;;1.60;;
3647;SDS011;1840;48.892;15.312;2023-02-01T13:11:33;3.90;;;1.53;;
3647;SDS011;1840;48.892;15.312;2023-02-01T13:14:05;6.83;;;1.57;;
3647;SDS011;1840;48.892;15.312;2023-02-01T13:16:45;2.50;;;1.43;;
3647;SDS011;1840;48.892;15.312;2023-02-01T13:19:17;5.17;;;2.27;;
3647;SDS011;1840;48.892;15.312;2023-02-01T13:21:48;5.73;;;1.87;;
3647;SDS011;1840;48.892;15.312;2023-02-01T13:24:24;6.50;;;1.80;;
3647;SDS011;1840;48.892;15.312;2023-02-01T13:26:58;6.17;;;1.97;;
3647;SDS011;1840;48.892;15.312;2023-02-01T13:29:27;3.60;;;1.70;;
3647;SDS011;1840;48.892;15.312;2023-02-01T13:32:01;5.23;;;1.50;;
3647;SDS011;1840;48.892;15.312;2023-02-01T13:34:51;3.60;;;1.50;;
3647;SDS011;1840;48.892;15.312;2023-02-01T13:37:38;5.27;;;1.77;;
3647;SDS011;1840;48.892;15.312;2023-02-01T13:40:23;3.47;;;1.40;;
3647;SDS011;1840;48.892;15.312;2023-02-01T13:43:05;3.93;;;1.67;;
3647;SDS011;1840;48.892;15.312;2023-02-01T13:45:42;6.87;;;1.43;;
3647;SDS011;1840;48.892;15.312;2023-02-01T13:48:17;4.80;;;1.60;;
3647;SDS011;1840;48.892;15.312;2023-02-01T13:50:50;6.63;;;1.97;;
3647;SDS011;1840;48.892;15.312;2023-02-01T13:53:22;3.80;;;1.60;;
3647;SDS011;1840;48.892;15.312;2023-02-01T13:55:59;5.37;;;1.90;;
3647;SDS011;1840;48.892;15.312;2023-02-01T13:58:29;13.10;;;1.67;;
3647;SDS011;1840;48.892;15.312;2023-02-01T14:07:16;7.47;;;1.53;;
3647;SDS011;1840;48.892;15.312;2023-02-01T14:09:46;2.50;;;1.10;;
3647;SDS011;1840;48.892;15.312;2023-02-01T14:15:18;5.93;;;1.60;;
3647;SDS011;1840;48.892;15.312;2023-02-01T14:17:54;2.30;;;1.47;;
3647;SDS011;1840;48.892;15.312;2023-02-01T14:23:16;3.53;;;1.47;;
3647;SDS011;1840;48.892;15.312;2023-02-01T14:26:08;3.50;;;1.70;;
3647;SDS011;1840;48.892;15.312;2023-02-01T14:28:45;2.83;;;1.50;;
3647;SDS011;1840;48.892;15.312;2023-02-01T14:31:30;4.20;;;1.50;;
3647;SDS011;1840;48.892;15.312;2023-02-01T14:34:13;3.53;;;1.30;;
3647;SDS011;1840;48.892;15.312;2023-02-01T14:36:46;3.13;;;1.20;;
3647;SDS011;1840;48.892;15.312;2023-02-01T14:39:22;2.90;;;1.37;;
3647;SDS011;1840;48.892;15.312;2023-02-01T14:41:55;6.30;;;1.70;;
3647;SDS011;1840;48.892;15.312;2023-02-01T14:44:33;5.03;;;1.97;;
3647;SDS011;1840;48.892;15.312;2023-02-01T14:47:04;3.17;;;1.50;;
3647;SDS011;1840;48.892;15.312;2023-02-01T14:49:39;10.60;;;1.83;;
3647;SDS011;1840;48.892;15.312;2023-02-01T14:52:17;3.67;;;1.30;;
3647;SDS011;1840;48.892;15.312;2023-02-01T14:54:48;2.33;;;1.30;;
3647;SDS011;1840;48.892;15.312;2023-02-01T14:57:20;3.20;;;1.50;;
3647;SDS011;1840;48.892;15.312;2023-02-01T14:59:57;6.10;;;1.90;;
3647;SDS011;1840;48.892;15.312;2023-02-01T15:02:33;4.30;;;1.80;;
3647;SDS011;1840;48.892;15.312;2023-02-01T15:05:12;6.40;;;1.50;;
3647;SDS011;1840;48.892;15.312;2023-02-01T15:07:52;5.13;;;1.93;;
3647;SDS011;1840;48.892;15.312;2023-02-01T15:10:22;2.67;;;1.50;;
3647;SDS011;1840;48.892;15.312;2023-02-01T15:12:51;4.20;;;1.70;;
3647;SDS011;1840;48.892;15.312;2023-02-01T15:15:21;4.13;;;1.50;;
3647;SDS011;1840;48.892;15.312;2023-02-01T15:17:52;2.83;;;1.50;;
3647;SDS011;1840;48.892;15.312;2023-02-01T15:20:22;3.53;;;1.40;;
3647;SDS011;1840;48.892;15.312;2023-02-01T15:22:53;4.03;;;2.20;;
3647;SDS011;1840;48.892;15.312;2023-02-01T15:25:24;4.00;;;2.00;;
3647;SDS011;1840;48.892;15.312;2023-02-01T15:27:54;2.97;;;1.87;;
3647;SDS011;1840;48.892;15.312;2023-02-01T15:30:25;3.60;;;1.70;;
3647;SDS011;1840;48.892;15.312;2023-02-01T15:33:03;3.63;;;1.53;;
3647;SDS011;1840;48.892;15.312;2023-02-01T15:35:40;3.20;;;1.20;;
3647;SDS011;1840;48.892;15.312;2023-02-01T15:38:21;4.03;;;1.63;;
3647;SDS011;1840;48.892;15.312;2023-02-01T15:41:00;2.73;;;1.37;;
3647;SDS011;1840;48.892;15.312;2023-02-01T15:43:31;3.73;;;1.60;;
3647;SDS011;1840;48.892;15.312;2023-02-01T15:46:02;6.07;;;1.40;;
3647;SDS011;1840;48.892;15.312;2023-02-01T15:48:35;5.13;;;1.90;;
3647;SDS011;1840;48.892;15.312;2023-02-01T15:51:10;7.87;;;1.70;;
3647;SDS011;1840;48.892;15.312;2023-02-01T15:53:45;4.10;;;1.50;;
3647;SDS011;1840;48.892;15.312;2023-02-01T15:56:15;3.50;;;1.43;;
3647;SDS011;1840;48.892;15.312;2023-02-01T15:58:50;4.73;;;1.90;;